Time;durP1;ratioP1;P1;durP2;ratioP2;P2;SDS_P1;SDS_P2;PMS_P1;PMS_P2;Temp;Humidity;BMP_temperature;BMP_pressure;BME280_temperature;BME280_humidity;BME280_pressure;Samples;Min_cycle;Max_cycle;Signal;HPM_P1;HPM_P2
2023/08/26 00:00:20;;;;;;;;;5.00;5.00;;;;;;;;5081225;28;45212;-74
2023/08/26 00:02:45;;;;;;;;;6.00;5.33;;;;;;;;5081191;28;45278;-74
2023/08/26 00:05:10;;;;;;;;;9.00;7.00;;;;;;;;5062835;28;45922;-74
2023/08/26 00:07:35;;;;;;;;;6.00;6.00;;;;;;;;5080663;28;45194;-74
2023/08/26 00:10:01;;;;;;;;;5.00;5.00;;;;;;;;5081053;28;45236;-74
2023/08/26 00:12:26;;;;;;;;;6.00;6.00;;;;;;;;5081307;28;45206;-74
2023/08/26 00:14:51;;;;;;;;;7.00;6.00;;;;;;;;5080914;28;45263;-74
2023/08/26 00:17:17;;;;;;;;;7.00;5.00;;;;;;;;5080738;28;46374;-74
2023/08/26 00:19:44;;;;;;;;;3.33;3.33;;;;;;;;5080987;28;45370;-74
2023/08/26 00:22:09;;;;;;;;;4.00;4.00;;;;;;;;5080892;28;45339;-74
2023/08/26 00:24:35;;;;;;;;;5.67;5.67;;;;;;;;5080431;28;45301;-74
2023/08/26 00:27:00;;;;;;;;;5.67;5.67;;;;;;;;5079885;28;45900;-74
2023/08/26 00:29:25;;;;;;;;;4.00;4.00;;;;;;;;5090173;27;45358;-74
2023/08/26 00:31:50;;;;;;;;;8.00;6.33;;;;;;;;5101167;27;45326;-74
2023/08/26 00:34:15;;;;;;;;;6.00;4.67;;;;;;;;5100963;27;45415;-73
2023/08/26 00:36:41;;;;;;;;;4.00;4.00;;;;;;;;5100934;27;45508;-74
2023/08/26 00:39:06;;;;;;;;;5.00;5.00;;;;;;;;5101008;27;45391;-74
2023/08/26 00:41:31;;;;;;;;;5.67;4.00;;;;;;;;5082717;27;45667;-74
2023/08/26 00:43:56;;;;;;;;;5.00;5.00;;;;;;;;5100943;27;45366;-74
2023/08/26 00:46:23;;;;;;;;;7.00;3.00;;;;;;;;5100877;27;46299;-74
2023/08/26 00:48:48;;;;;;;;;6.00;6.00;;;;;;;;5100741;27;45235;-74
2023/08/26 00:51:14;;;;;;;;;6.00;6.00;;;;;;;;5100875;27;45157;-74
2023/08/26 00:53:40;;;;;;;;;4.67;4.00;;;;;;;;5100768;27;45430;-74
2023/08/26 00:56:05;;;;;;;;;3.00;3.00;;;;;;;;5100618;27;45218;-74
2023/08/26 00:58:31;;;;;;;;;5.33;5.33;;;;;;;;5100781;27;45234;-74
2023/08/26 01:00:57;;;;;;;;;5.00;5.00;;;;;;;;5082219;27;45322;-74
2023/08/26 01:03:22;;;;;;;;;5.00;5.00;;;;;;;;5099986;27;45459;-74
2023/08/26 01:05:47;;;;;;;;;5.67;5.00;;;;;;;;5099999;27;46526;-74
2023/08/26 01:08:13;;;;;;;;;5.67;5.67;;;;;;;;5081202;27;45926;-74
2023/08/26 01:10:41;;;;;;;;;6.67;5.33;;;;;;;;5100751;27;45385;-73
2023/08/26 01:13:10;;;;;;;;;3.67;3.67;;;;;;;;5082203;27;46148;-73
2023/08/26 01:15:37;;;;;;;;;5.00;5.00;;;;;;;;5100379;27;46187;-74
2023/08/26 01:18:06;;;;;;;;;5.00;5.00;;;;;;;;5100204;27;45441;-74
2023/08/26 01:20:32;;;;;;;;;6.33;5.00;;;;;;;;5100422;27;45359;-74
2023/08/26 01:22:59;;;;;;;;;6.67;6.67;;;;;;;;5100338;27;45274;-74
2023/08/26 01:25:24;;;;;;;;;1.00;0.00;;;;;;;;5099156;27;46265;-74
2023/08/26 01:27:49;;;;;;;;;5.00;5.00;;;;;;;;5100245;27;45207;-74
2023/08/26 01:30:15;;;;;;;;;6.00;5.00;;;;;;;;5083693;27;45181;-74
2023/08/26 01:32:44;;;;;;;;;3.00;2.67;;;;;;;;5061365;28;46341;-74
2023/08/26 01:35:12;;;;;;;;;4.00;4.00;;;;;;;;5061528;28;48156;-73
2023/08/26 01:37:39;;;;;;;;;6.00;5.00;;;;;;;;5061293;28;45388;-74
2023/08/26 01:40:06;;;;;;;;;4.33;4.33;;;;;;;;5079827;28;45208;-74
2023/08/26 01:42:31;;;;;;;;;5.00;4.00;;;;;;;;5079574;28;45295;-74
2023/08/26 01:44:57;;;;;;;;;4.33;4.33;;;;;;;;5079548;28;45251;-74
2023/08/26 01:47:22;;;;;;;;;5.00;5.00;;;;;;;;5079476;28;45356;-74
2023/08/26 01:49:47;;;;;;;;;5.67;5.67;;;;;;;;5079862;28;45323;-74
2023/08/26 01:52:12;;;;;;;;;4.00;4.00;;;;;;;;5079592;28;45425;-74
2023/08/26 01:54:37;;;;;;;;;4.00;3.33;;;;;;;;5079288;28;45324;-74
2023/08/26 01:57:03;;;;;;;;;5.67;5.00;;;;;;;;5079617;28;45445;-74
2023/08/26 01:59:28;;;;;;;;;4.00;4.00;;;;;;;;5061330;28;45429;-74
2023/08/26 02:01:53;;;;;;;;;5.00;5.00;;;;;;;;5079356;28;45342;-74
2023/08/26 02:04:19;;;;;;;;;6.33;5.33;;;;;;;;5079257;28;45492;-74
2023/08/26 02:06:44;;;;;;;;;4.00;4.00;;;;;;;;5079365;28;45263;-74
2023/08/26 02:09:09;;;;;;;;;4.33;4.33;;;;;;;;5079595;28;45384;-74
2023/08/26 02:11:34;;;;;;;;;5.67;4.00;;;;;;;;5079296;28;45343;-74
2023/08/26 02:14:00;;;;;;;;;5.00;5.00;;;;;;;;5080739;28;45363;-74
2023/08/26 02:16:25;;;;;;;;;4.00;4.00;;;;;;;;5064579;28;45704;-74
2023/08/26 02:18:50;;;;;;;;;5.33;5.00;;;;;;;;5082778;28;45442;-74
2023/08/26 02:21:15;;;;;;;;;3.00;3.00;;;;;;;;5082645;28;45387;-74
2023/08/26 02:23:41;;;;;;;;;4.00;4.00;;;;;;;;5082649;28;45332;-74
2023/08/26 02:26:06;;;;;;;;;3.00;3.00;;;;;;;;5064291;28;45240;-74
2023/08/26 02:28:31;;;;;;;;;4.33;4.33;;;;;;;;5066599;27;45512;-74
2023/08/26 02:30:56;;;;;;;;;4.33;4.33;;;;;;;;5103115;27;45520;-74
2023/08/26 02:33:22;;;;;;;;;3.33;3.33;;;;;;;;5102877;27;45287;-73
2023/08/26 02:35:47;;;;;;;;;4.00;4.00;;;;;;;;5102678;27;45328;-74
2023/08/26 02:38:13;;;;;;;;;4.00;4.00;;;;;;;;5084770;27;45225;-74
2023/08/26 02:40:38;;;;;;;;;3.33;3.33;;;;;;;;5102922;27;45394;-74
2023/08/26 02:43:04;;;;;;;;;1.00;1.00;;;;;;;;5102658;27;45150;-74
2023/08/26 02:45:29;;;;;;;;;4.67;4.67;;;;;;;;5102825;27;45267;-74
2023/08/26 02:47:54;;;;;;;;;4.00;3.00;;;;;;;;5102871;27;45361;-74
2023/08/26 02:50:19;;;;;;;;;3.00;3.00;;;;;;;;5102656;27;45469;-74
2023/08/26 02:52:44;;;;;;;;;3.00;2.33;;;;;;;;5102777;27;45508;-74
2023/08/26 02:55:10;;;;;;;;;4.00;3.67;;;;;;;;5084191;27;45233;-74
2023/08/26 02:57:35;;;;;;;;;5.67;4.33;;;;;;;;5102772;27;45233;-74
2023/08/26 03:00:01;;;;;;;;;4.00;4.00;;;;;;;;5102440;27;45579;-74
2023/08/26 03:02:26;;;;;;;;;5.00;5.00;;;;;;;;5102412;27;45549;-74
2023/08/26 03:04:51;;;;;;;;;3.00;3.00;;;;;;;;5102730;27;45228;-74
2023/08/26 03:07:17;;;;;;;;;4.00;4.00;;;;;;;;5084159;27;45351;-74
2023/08/26 03:09:42;;;;;;;;;3.67;3.67;;;;;;;;5102573;27;45335;-74
2023/08/26 03:12:07;;;;;;;;;4.00;4.00;;;;;;;;5102407;27;45629;-74
2023/08/26 03:14:32;;;;;;;;;4.00;4.00;;;;;;;;5102509;27;45236;-74
2023/08/26 03:16:57;;;;;;;;;5.00;5.00;;;;;;;;5098039;27;45517;-74
2023/08/26 03:19:22;;;;;;;;;3.00;3.00;;;;;;;;5081782;28;45307;-74
2023/08/26 03:21:48;;;;;;;;;4.00;4.00;;;;;;;;5081814;28;46334;-74
2023/08/26 03:24:16;;;;;;;;;4.00;4.00;;;;;;;;5063471;28;45303;-74
2023/08/26 03:26:42;;;;;;;;;6.33;4.67;;;;;;;;5082078;28;45373;-74
2023/08/26 03:29:07;;;;;;;;;4.00;3.00;;;;;;;;5088721;27;45280;-74
2023/08/26 03:31:32;;;;;;;;;5.67;4.00;;;;;;;;5101896;27;45269;-74
2023/08/26 03:33:58;;;;;;;;;5.00;4.00;;;;;;;;5102080;27;45274;-74
2023/08/26 03:36:23;;;;;;;;;4.67;4.67;;;;;;;;5083648;27;45340;-74
2023/08/26 03:38:48;;;;;;;;;4.67;4.67;;;;;;;;5102014;27;45485;-74
2023/08/26 03:41:14;;;;;;;;;4.33;3.67;;;;;;;;5101657;27;46096;-74
2023/08/26 03:43:39;;;;;;;;;4.33;4.33;;;;;;;;5102018;27;45307;-74
2023/08/26 03:46:04;;;;;;;;;6.00;4.00;;;;;;;;5102032;27;45263;-74
2023/08/26 03:48:30;;;;;;;;;4.67;4.67;;;;;;;;5101587;27;45551;-73
2023/08/26 03:50:56;;;;;;;;;6.33;6.33;;;;;;;;5101653;27;46119;-73
2023/08/26 03:53:21;;;;;;;;;4.00;4.00;;;;;;;;5101806;27;45294;-73
2023/08/26 03:55:46;;;;;;;;;5.67;5.67;;;;;;;;5101855;27;45203;-73
2023/08/26 03:58:12;;;;;;;;;6.00;5.00;;;;;;;;5101812;27;45210;-73
2023/08/26 04:00:40;;;;;;;;;4.33;4.33;;;;;;;;5101572;27;45682;-74
2023/08/26 04:03:06;;;;;;;;;4.00;4.00;;;;;;;;5101522;27;45387;-74
2023/08/26 04:05:31;;;;;;;;;4.33;4.00;;;;;;;;5101618;27;45450;-74
2023/08/26 04:07:57;;;;;;;;;5.00;5.00;;;;;;;;5083121;27;47166;-74
2023/08/26 04:10:22;;;;;;;;;4.33;4.33;;;;;;;;5101446;27;45250;-73
2023/08/26 04:12:47;;;;;;;;;3.33;3.33;;;;;;;;5082198;27;45309;-75
2023/08/26 04:15:14;;;;;;;;;4.00;4.00;;;;;;;;5081070;28;45317;-73
2023/08/26 04:17:40;;;;;;;;;3.00;3.00;;;;;;;;5080693;28;45283;-73
2023/08/26 04:20:06;;;;;;;;;5.00;5.00;;;;;;;;5080710;28;45305;-73
2023/08/26 04:22:31;;;;;;;;;4.00;4.00;;;;;;;;5080881;28;45275;-73
2023/08/26 04:24:56;;;;;;;;;4.00;4.00;;;;;;;;5080859;28;45176;-73
2023/08/26 04:27:21;;;;;;;;;6.33;6.00;;;;;;;;5080841;28;45244;-73
2023/08/26 04:29:47;;;;;;;;;4.67;4.67;;;;;;;;5075108;27;48227;-73
2023/08/26 04:32:12;;;;;;;;;5.00;5.00;;;;;;;;5101080;27;45746;-73
2023/08/26 04:34:37;;;;;;;;;2.33;2.33;;;;;;;;5101474;27;45441;-74
2023/08/26 04:37:02;;;;;;;;;6.00;5.67;;;;;;;;5100377;27;45378;-73
2023/08/26 04:39:27;;;;;;;;;3.00;3.00;;;;;;;;5101001;27;45405;-73
2023/08/26 04:41:53;;;;;;;;;4.00;4.00;;;;;;;;5100899;27;45378;-74
2023/08/26 04:44:19;;;;;;;;;5.00;5.00;;;;;;;;5101017;27;45368;-73
2023/08/26 04:46:44;;;;;;;;;6.33;6.33;;;;;;;;5100746;27;45366;-73
2023/08/26 04:49:10;;;;;;;;;4.33;4.33;;;;;;;;5099458;27;45950;-73
2023/08/26 04:51:37;;;;;;;;;5.00;5.00;;;;;;;;5099313;27;45398;-73
2023/08/26 04:54:02;;;;;;;;;4.67;4.33;;;;;;;;5099369;27;45294;-73
2023/08/26 04:56:27;;;;;;;;;6.33;5.00;;;;;;;;5100663;27;45448;-73
2023/08/26 04:58:53;;;;;;;;;4.33;4.33;;;;;;;;5100806;27;45282;-73
2023/08/26 05:01:18;;;;;;;;;5.67;5.67;;;;;;;;5082421;27;45149;-73
2023/08/26 05:03:43;;;;;;;;;6.00;5.67;;;;;;;;5100520;27;45688;-73
2023/08/26 05:06:08;;;;;;;;;4.00;4.00;;;;;;;;5100371;27;45383;-73
2023/08/26 05:08:33;;;;;;;;;5.00;5.00;;;;;;;;5100606;27;45220;-73
2023/08/26 05:10:58;;;;;;;;;5.67;4.00;;;;;;;;5100670;27;45215;-73
2023/08/26 05:13:24;;;;;;;;;4.00;4.00;;;;;;;;5100577;27;45208;-73
2023/08/26 05:15:49;;;;;;;;;2.33;2.33;;;;;;;;5082046;27;46954;-73
2023/08/26 05:18:14;;;;;;;;;5.00;4.67;;;;;;;;5100052;27;45774;-73
2023/08/26 05:20:44;;;;;;;;;6.67;6.67;;;;;;;;5099772;27;45267;-73
2023/08/26 05:23:09;;;;;;;;;6.33;5.00;;;;;;;;5099440;27;45362;-73
2023/08/26 05:25:35;;;;;;;;;3.67;3.67;;;;;;;;5100124;27;45399;-73
2023/08/26 05:28:00;;;;;;;;;5.00;5.00;;;;;;;;5081924;27;47713;-73
2023/08/26 05:30:25;;;;;;;;;4.67;4.00;;;;;;;;5082187;27;45335;-73
2023/08/26 05:32:50;;;;;;;;;5.00;4.67;;;;;;;;5079966;28;45306;-73
2023/08/26 05:35:16;;;;;;;;;5.00;5.00;;;;;;;;5079645;28;45404;-73
2023/08/26 05:37:44;;;;;;;;;4.33;4.33;;;;;;;;5079943;28;46327;-73
2023/08/26 05:40:10;;;;;;;;;5.00;4.00;;;;;;;;5072068;28;45284;-73
2023/08/26 05:42:35;;;;;;;;;3.67;3.00;;;;;;;;5070389;28;45395;-73
2023/08/26 05:45:00;;;;;;;;;4.67;4.33;;;;;;;;5069675;28;45555;-73
2023/08/26 05:47:26;;;;;;;;;4.00;4.00;;;;;;;;5076504;28;45554;-73
2023/08/26 05:49:51;;;;;;;;;5.00;3.00;;;;;;;;5079800;28;45494;-73
2023/08/26 05:52:16;;;;;;;;;4.33;4.33;;;;;;;;5063732;28;45544;-74
2023/08/26 05:54:42;;;;;;;;;5.67;5.33;;;;;;;;5062703;28;45328;-75
2023/08/26 05:57:10;;;;;;;;;6.33;6.00;;;;;;;;5062871;28;45994;-74
2023/08/26 05:59:35;;;;;;;;;7.00;5.00;;;;;;;;5062953;28;45363;-75
2023/08/26 06:02:00;;;;;;;;;4.00;3.00;;;;;;;;5064121;28;45374;-74
2023/08/26 06:04:27;;;;;;;;;3.33;3.33;;;;;;;;5092418;28;45272;-74
2023/08/26 06:06:52;;;;;;;;;4.00;3.00;;;;;;;;5101176;28;45426;-74
2023/08/26 06:09:18;;;;;;;;;2.67;2.67;;;;;;;;5082360;28;45220;-75
2023/08/26 06:11:43;;;;;;;;;2.33;2.33;;;;;;;;5098347;28;44849;-74
2023/08/26 06:14:08;;;;;;;;;3.67;3.33;;;;;;;;5099459;28;45140;-74
2023/08/26 06:16:33;;;;;;;;;4.33;4.33;;;;;;;;5101570;28;46316;-75
2023/08/26 06:18:58;;;;;;;;;4.33;4.00;;;;;;;;5080968;28;45244;-75
2023/08/26 06:21:24;;;;;;;;;3.00;3.00;;;;;;;;5098879;28;44727;-74
2023/08/26 06:23:49;;;;;;;;;2.33;2.33;;;;;;;;5095677;28;45198;-77
2023/08/26 06:26:14;;;;;;;;;3.67;3.67;;;;;;;;5094934;28;45263;-75
2023/08/26 06:28:39;;;;;;;;;3.00;3.00;;;;;;;;5097699;28;45198;-77
2023/08/26 06:31:05;;;;;;;;;2.33;2.33;;;;;;;;5092911;28;45163;-74
2023/08/26 06:33:30;;;;;;;;;4.00;3.00;;;;;;;;5092209;28;45532;-76
2023/08/26 06:35:55;;;;;;;;;3.00;2.33;;;;;;;;5067870;28;47303;-74
2023/08/26 06:38:20;;;;;;;;;2.00;2.00;;;;;;;;5078921;28;45407;-74
2023/08/26 06:40:52;;;;;;;;;3.33;2.00;;;;;;;;5055643;28;45411;-74
2023/08/26 06:43:18;;;;;;;;;4.00;2.00;;;;;;;;5075371;28;45882;-74
2023/08/26 06:45:43;;;;;;;;;3.33;2.67;;;;;;;;5073028;28;45197;-75
2023/08/26 06:48:08;;;;;;;;;2.00;2.00;;;;;;;;5066181;28;45283;-73
2023/08/26 06:50:33;;;;;;;;;2.00;2.00;;;;;;;;5062095;28;45138;-74
2023/08/26 06:52:58;;;;;;;;;4.00;2.67;;;;;;;;5042895;28;46073;-74
2023/08/26 06:55:24;;;;;;;;;2.00;2.00;;;;;;;;5060656;28;45442;-73
2023/08/26 06:57:49;;;;;;;;;3.00;3.00;;;;;;;;5060719;28;45204;-74
2023/08/26 07:00:15;;;;;;;;;3.00;3.00;;;;;;;;5061466;28;45623;-76
2023/08/26 07:02:40;;;;;;;;;2.67;2.67;;;;;;;;5061118;28;45293;-78
2023/08/26 07:05:06;;;;;;;;;2.67;2.67;;;;;;;;5048498;28;47381;-75
2023/08/26 07:07:31;;;;;;;;;2.00;2.00;;;;;;;;5061132;28;45221;-76
2023/08/26 07:09:56;;;;;;;;;1.00;0.33;;;;;;;;5062696;28;45182;-75
2023/08/26 07:12:21;;;;;;;;;3.00;3.00;;;;;;;;5043828;28;46165;-74
2023/08/26 07:14:46;;;;;;;;;3.00;3.00;;;;;;;;5063573;28;45345;-74
2023/08/26 07:17:12;;;;;;;;;2.00;2.00;;;;;;;;5076135;28;45363;-73
2023/08/26 07:19:37;;;;;;;;;1.00;1.00;;;;;;;;5073472;28;45352;-72
2023/08/26 07:22:03;;;;;;;;;1.00;1.00;;;;;;;;5073620;28;45335;-74
2023/08/26 07:24:29;;;;;;;;;2.33;2.33;;;;;;;;5060914;28;46181;-73
2023/08/26 07:26:54;;;;;;;;;1.33;1.33;;;;;;;;5060111;28;45301;-73
2023/08/26 07:29:19;;;;;;;;;2.00;2.00;;;;;;;;5078974;27;45317;-74
2023/08/26 07:31:44;;;;;;;;;2.00;2.00;;;;;;;;5100670;27;45339;-74
2023/08/26 07:34:10;;;;;;;;;2.00;2.00;;;;;;;;5101054;27;45501;-73
2023/08/26 07:36:35;;;;;;;;;1.00;1.00;;;;;;;;5100850;27;45414;-74
2023/08/26 07:39:00;;;;;;;;;2.00;2.00;;;;;;;;5101219;27;45441;-72
2023/08/26 07:41:25;;;;;;;;;31.25;30.00;;;;;;;;5042159;27;1128004;-71
2023/08/26 07:43:51;;;;;;;;;3.33;3.33;;;;;;;;5098515;27;46237;-73
2023/08/26 07:46:18;;;;;;;;;1.00;1.00;;;;;;;;5082103;28;45596;-74
2023/08/26 07:48:44;;;;;;;;;2.00;1.33;;;;;;;;5084382;27;45323;-73
2023/08/26 07:51:09;;;;;;;;;3.67;2.67;;;;;;;;5081664;28;45228;-75
2023/08/26 07:53:34;;;;;;;;;1.00;1.00;;;;;;;;5083918;28;45271;-74
2023/08/26 07:55:59;;;;;;;;;1.00;1.00;;;;;;;;5086841;27;45289;-74
2023/08/26 07:58:24;;;;;;;;;0.00;0.00;;;;;;;;5066359;28;45197;-74
2023/08/26 08:00:49;;;;;;;;;2.00;2.00;;;;;;;;5081937;27;45291;-73
2023/08/26 08:03:16;;;;;;;;;4.00;2.33;;;;;;;;5072371;28;45293;-73
2023/08/26 08:05:41;;;;;;;;;1.25;1.00;;;;;;;;5055433;28;45814;-73
2023/08/26 08:08:06;;;;;;;;;1.75;0.75;;;;;;;;5075474;28;45300;-73
2023/08/26 08:10:31;;;;;;;;;3.00;1.50;;;;;;;;5096555;27;45362;-73
2023/08/26 08:12:57;;;;;;;;;2.33;1.67;;;;;;;;5063502;28;48091;-73
2023/08/26 08:15:22;;;;;;;;;2.00;2.00;;;;;;;;5080945;27;45492;-74
2023/08/26 08:17:47;;;;;;;;;1.33;1.33;;;;;;;;5059955;28;45201;-75
2023/08/26 08:20:12;;;;;;;;;2.00;2.00;;;;;;;;5074452;27;45680;-75
2023/08/26 08:22:41;;;;;;;;;4.00;2.00;;;;;;;;5071191;28;45366;-73
2023/08/26 08:25:07;;;;;;;;;3.00;2.67;;;;;;;;5080276;28;45402;-74
2023/08/26 08:27:32;;;;;;;;;1.00;1.00;;;;;;;;5080381;28;45326;-73
2023/08/26 08:29:58;;;;;;;;;1.00;1.00;;;;;;;;5094547;27;45488;-73
2023/08/26 08:32:23;;;;;;;;;0.00;0.00;;;;;;;;5081970;27;47522;-73
2023/08/26 08:34:49;;;;;;;;;2.00;1.00;;;;;;;;5101153;27;45310;-73
2023/08/26 08:37:14;;;;;;;;;1.00;1.00;;;;;;;;5082719;27;45366;-73
2023/08/26 08:39:39;;;;;;;;;1.00;1.00;;;;;;;;5082869;27;47357;-74
2023/08/26 08:42:08;;;;;;;;;3.67;2.00;;;;;;;;5100845;27;45393;-74
2023/08/26 08:44:35;;;;;;;;;3.00;1.67;;;;;;;;5100952;27;45397;-73
2023/08/26 08:47:03;;;;;;;;;1.00;1.00;;;;;;;;5101086;27;45413;-73
2023/08/26 08:49:28;;;;;;;;;2.00;0.67;;;;;;;;5082552;27;47304;-73
2023/08/26 08:51:54;;;;;;;;;1.00;1.00;;;;;;;;5082457;27;47523;-73
2023/08/26 08:54:19;;;;;;;;;1.00;0.00;;;;;;;;5100642;27;45251;-74
2023/08/26 08:56:45;;;;;;;;;0.67;0.67;;;;;;;;5101072;27;45250;-73
2023/08/26 08:59:11;;;;;;;;;2.00;2.00;;;;;;;;5082532;27;46070;-73
2023/08/26 09:01:36;;;;;;;;;1.00;1.00;;;;;;;;5100523;27;45509;-74
2023/08/26 09:04:02;;;;;;;;;1.00;1.00;;;;;;;;5080821;27;45280;-74
2023/08/26 09:06:27;;;;;;;;;1.00;1.00;;;;;;;;5061968;28;45375;-74
2023/08/26 09:08:53;;;;;;;;;1.75;1.00;;;;;;;;5061981;28;47229;-73
2023/08/26 09:11:19;;;;;;;;;1.25;1.25;;;;;;;;5080165;28;46039;-73
2023/08/26 09:13:45;;;;;;;;;1.00;1.00;;;;;;;;5061990;28;46137;-74
2023/08/26 09:16:10;;;;;;;;;2.00;2.00;;;;;;;;5081931;28;45344;-74
2023/08/26 09:18:39;;;;;;;;;1.00;1.00;;;;;;;;5080173;28;45299;-74
2023/08/26 09:21:08;;;;;;;;;2.00;2.00;;;;;;;;5061732;28;47985;-73
2023/08/26 09:23:43;;;;;;;;;1.33;1.33;;;;;;;;5079916;28;45505;-74
2023/08/26 09:26:08;;;;;;;;;2.00;2.00;;;;;;;;5077923;28;45272;-74
2023/08/26 09:28:37;;;;;;;;;0.50;0.50;;;;;;;;5066928;27;45402;-74
2023/08/26 09:31:06;;;;;;;;;0.75;0.50;;;;;;;;5100493;27;45343;-74
2023/08/26 09:33:31;;;;;;;;;2.00;2.00;;;;;;;;5081878;27;45542;-73
2023/08/26 09:35:58;;;;;;;;;1.50;1.00;;;;;;;;5093430;27;45723;-73
2023/08/26 09:38:23;;;;;;;;;1.00;1.00;;;;;;;;5065393;28;45351;-73
2023/08/26 09:40:48;;;;;;;;;1.00;1.00;;;;;;;;5063890;28;46559;-73
2023/08/26 09:43:14;;;;;;;;;0.50;0.50;;;;;;;;5068578;28;45388;-73
2023/08/26 09:45:40;;;;;;;;;3.00;3.00;;;;;;;;5041369;28;45388;-74
2023/08/26 09:48:08;;;;;;;;;2.00;2.00;;;;;;;;5041595;28;46064;-73
2023/08/26 09:50:33;;;;;;;;;1.25;1.25;;;;;;;;5041891;28;47143;-74
2023/08/26 09:52:58;;;;;;;;;1.25;1.00;;;;;;;;5060090;28;45208;-73
2023/08/26 09:55:24;;;;;;;;;1.00;1.00;;;;;;;;5060643;28;45224;-74
2023/08/26 09:57:49;;;;;;;;;1.00;1.00;;;;;;;;5060498;28;45237;-74
2023/08/26 10:00:19;;;;;;;;;2.00;2.00;;;;;;;;5059911;28;45150;-73
2023/08/26 10:02:49;;;;;;;;;2.00;2.00;;;;;;;;5059584;28;45401;-74
2023/08/26 10:05:21;;;;;;;;;2.25;1.50;;;;;;;;5041912;28;45273;-74
2023/08/26 10:07:47;;;;;;;;;1.00;1.00;;;;;;;;5042415;28;45323;-74
2023/08/26 10:10:21;;;;;;;;;1.00;1.00;;;;;;;;5064613;28;46321;-75
2023/08/26 10:12:49;;;;;;;;;3.67;3.67;;;;;;;;5062996;28;45328;-74
2023/08/26 10:15:17;;;;;;;;;3.25;3.00;;;;;;;;5046291;28;45286;-75
2023/08/26 10:17:48;;;;;;;;;2.75;2.75;;;;;;;;5052057;28;45341;-74
2023/08/26 10:20:13;;;;;;;;;3.00;2.25;;;;;;;;5065662;28;45710;-75
2023/08/26 10:22:39;;;;;;;;;3.75;2.25;;;;;;;;5046527;28;46089;-74
2023/08/26 10:25:05;;;;;;;;;1.00;1.00;;;;;;;;5066583;28;45240;-73
2023/08/26 10:27:31;;;;;;;;;1.00;1.00;;;;;;;;5061410;28;45430;-73
2023/08/26 10:29:56;;;;;;;;;4.00;2.50;;;;;;;;5092280;27;45614;-75
2023/08/26 10:32:23;;;;;;;;;1.75;1.75;;;;;;;;5104082;27;45218;-75
2023/08/26 10:34:51;;;;;;;;;3.00;2.00;;;;;;;;5111033;27;45418;-74
2023/08/26 10:37:17;;;;;;;;;5.25;3.75;;;;;;;;5105525;27;45471;-74
2023/08/26 10:39:42;;;;;;;;;2.00;2.00;;;;;;;;5084558;27;47381;-73
2023/08/26 10:42:16;;;;;;;;;1.75;1.75;;;;;;;;5103245;27;45334;-73
2023/08/26 10:44:43;;;;;;;;;1.00;1.00;;;;;;;;5104880;27;45397;-74
2023/08/26 10:47:08;;;;;;;;;2.25;2.25;;;;;;;;5104002;27;45299;-73
2023/08/26 10:49:34;;;;;;;;;1.00;1.00;;;;;;;;5105881;27;46184;-74
2023/08/26 10:52:16;;;;;;;;;2.00;2.00;;;;;;;;5081284;27;44862;-74
2023/08/26 10:54:42;;;;;;;;;3.00;3.00;;;;;;;;5074114;28;45489;-74
2023/08/26 10:57:08;;;;;;;;;1.75;1.75;;;;;;;;5077314;28;45469;-74
2023/08/26 10:59:35;;;;;;;;;2.00;2.00;;;;;;;;5079829;28;45566;-73
2023/08/26 11:02:00;;;;;;;;;1.50;1.00;;;;;;;;5073243;28;45441;-74
2023/08/26 11:04:26;;;;;;;;;2.50;2.00;;;;;;;;5057077;28;45308;-74
2023/08/26 11:06:51;;;;;;;;;1.00;0.75;;;;;;;;5074753;28;45537;-74
2023/08/26 11:09:18;;;;;;;;;1.00;1.00;;;;;;;;5070020;28;45501;-74
2023/08/26 11:11:43;;;;;;;;;0.75;0.75;;;;;;;;5076567;28;44737;-73
2023/08/26 11:14:08;;;;;;;;;2.00;2.00;;;;;;;;5074995;28;45394;-73
2023/08/26 11:16:34;;;;;;;;;2.75;2.75;;;;;;;;5081659;28;45456;-73
2023/08/26 11:18:59;;;;;;;;;2.25;2.25;;;;;;;;5082123;28;46361;-74
2023/08/26 11:21:25;;;;;;;;;2.25;2.25;;;;;;;;5079415;28;45457;-73
2023/08/26 11:23:51;;;;;;;;;1.75;1.75;;;;;;;;5063785;28;45440;-74
2023/08/26 11:26:22;;;;;;;;;1.25;1.25;;;;;;;;5082291;28;45458;-72
2023/08/26 11:28:48;;;;;;;;;0.00;0.00;;;;;;;;5086079;27;45400;-73
2023/08/26 11:31:14;;;;;;;;;2.00;2.00;;;;;;;;5084308;27;45264;-73
2023/08/26 11:33:39;;;;;;;;;0.25;0.25;;;;;;;;5087484;27;45314;-74
2023/08/26 11:36:04;;;;;;;;;0.00;0.00;;;;;;;;5104483;27;45462;-73
2023/08/26 11:38:34;;;;;;;;;2.00;2.00;;;;;;;;5103594;27;45399;-73
2023/08/26 11:41:02;;;;;;;;;2.00;2.00;;;;;;;;5102939;27;45251;-73
2023/08/26 11:43:27;;;;;;;;;2.00;0.00;;;;;;;;5084826;27;45516;-74
2023/08/26 11:45:54;;;;;;;;;1.00;1.00;;;;;;;;5101219;27;45322;-74
2023/08/26 11:48:20;;;;;;;;;0.00;0.00;;;;;;;;5083784;27;46970;-73
2023/08/26 11:50:46;;;;;;;;;1.75;1.75;;;;;;;;5103538;27;45374;-73
2023/08/26 11:53:11;;;;;;;;;4.25;4.00;;;;;;;;5102649;27;45375;-74
2023/08/26 11:55:38;;;;;;;;;2.00;2.00;;;;;;;;5083785;27;45505;-73
2023/08/26 11:58:04;;;;;;;;;2.50;1.25;;;;;;;;5103132;27;45538;-73
2023/08/26 12:00:29;;;;;;;;;4.25;3.00;;;;;;;;5102758;27;45326;-74
2023/08/26 12:03:04;;;;;;;;;3.00;3.00;;;;;;;;5086320;27;45643;-74
2023/08/26 12:05:42;;;;;;;;;1.00;1.00;;;;;;;;5064763;28;45344;-73
2023/08/26 12:08:12;;;;;;;;;1.00;1.00;;;;;;;;5045440;28;48175;-73
2023/08/26 12:10:37;;;;;;;;;2.50;2.50;;;;;;;;5060571;28;45359;-72
2023/08/26 12:13:04;;;;;;;;;1.00;1.00;;;;;;;;5060692;28;45616;-74
2023/08/26 12:15:29;;;;;;;;;1.50;1.25;;;;;;;;5042813;28;46194;-73
2023/08/26 12:17:55;;;;;;;;;1.00;1.00;;;;;;;;5060702;28;45343;-75
2023/08/26 12:20:20;;;;;;;;;1.00;1.00;;;;;;;;5061086;28;45364;-74
2023/08/26 12:22:49;;;;;;;;;0.25;0.25;;;;;;;;5061453;28;45277;-74
2023/08/26 12:25:18;;;;;;;;;2.00;2.00;;;;;;;;5042433;28;47167;-73
2023/08/26 12:27:43;;;;;;;;;1.00;1.00;;;;;;;;5060732;28;45336;-72
2023/08/26 12:30:08;;;;;;;;;1.00;0.00;;;;;;;;5092210;27;45432;-73
2023/08/26 12:32:34;;;;;;;;;2.00;2.00;;;;;;;;5083281;27;45331;-73
2023/08/26 12:35:00;;;;;;;;;0.75;0.75;;;;;;;;5101945;27;45564;-73
2023/08/26 12:37:25;;;;;;;;;1.50;1.00;;;;;;;;5073756;28;47177;-73
2023/08/26 12:39:50;;;;;;;;;0.75;0.75;;;;;;;;5059696;28;45234;-73
2023/08/26 12:42:15;;;;;;;;;1.25;1.00;;;;;;;;5061284;28;45367;-72
2023/08/26 12:44:40;;;;;;;;;1.00;1.00;;;;;;;;5061063;28;45476;-72
2023/08/26 12:47:05;;;;;;;;;0.75;0.75;;;;;;;;5060522;28;45252;-72
2023/08/26 12:49:31;;;;;;;;;1.75;1.00;;;;;;;;5060556;28;45268;-73
2023/08/26 12:51:56;;;;;;;;;1.00;1.00;;;;;;;;5058999;28;45372;-72
2023/08/26 12:54:21;;;;;;;;;0.25;0.25;;;;;;;;5060257;28;45382;-72
2023/08/26 12:56:46;;;;;;;;;2.00;2.00;;;;;;;;5060164;28;45212;-72
2023/08/26 12:59:12;;;;;;;;;2.50;2.50;;;;;;;;5059971;28;45161;-73
2023/08/26 13:01:37;;;;;;;;;2.75;2.00;;;;;;;;5060371;28;45214;-73
2023/08/26 13:04:04;;;;;;;;;7.75;6.00;;;;;;;;5058704;28;46774;-73
2023/08/26 13:06:29;;;;;;;;;2.00;2.00;;;;;;;;5060740;28;46045;-73
2023/08/26 13:08:54;;;;;;;;;1.00;1.00;;;;;;;;5059547;28;45346;-73
2023/08/26 13:11:19;;;;;;;;;0.50;0.00;;;;;;;;5058799;28;45320;-72
2023/08/26 13:13:44;;;;;;;;;1.00;1.00;;;;;;;;5059918;28;45335;-73
2023/08/26 13:16:10;;;;;;;;;0.25;0.25;;;;;;;;5059672;28;46339;-73
2023/08/26 13:18:38;;;;;;;;;3.75;2.25;;;;;;;;5059950;28;45289;-72
2023/08/26 13:21:03;;;;;;;;;2.75;2.00;;;;;;;;5058464;28;45321;-72
2023/08/26 13:23:28;;;;;;;;;1.00;1.00;;;;;;;;5059449;28;45502;-73
2023/08/26 13:25:53;;;;;;;;;2.50;1.75;;;;;;;;5059727;28;46028;-73
2023/08/26 13:28:19;;;;;;;;;1.00;1.00;;;;;;;;5071596;27;45318;-74
2023/08/26 13:30:44;;;;;;;;;3.75;2.00;;;;;;;;5065493;28;45312;-74
2023/08/26 13:33:09;;;;;;;;;1.25;1.00;;;;;;;;5073177;28;45506;-73
2023/08/26 13:35:34;;;;;;;;;1.25;1.00;;;;;;;;5083619;28;46201;-74
2023/08/26 13:38:00;;;;;;;;;1.75;1.75;;;;;;;;5065240;28;45437;-73
2023/08/26 13:40:25;;;;;;;;;0.50;0.50;;;;;;;;5077261;28;45442;-73
2023/08/26 13:42:53;;;;;;;;;1.00;1.00;;;;;;;;5056203;28;45987;-73
2023/08/26 13:45:18;;;;;;;;;0.00;0.00;;;;;;;;5081506;28;46430;-74
2023/08/26 13:47:43;;;;;;;;;2.00;2.00;;;;;;;;5083746;28;45421;-73
2023/08/26 13:50:08;;;;;;;;;3.00;1.00;;;;;;;;5084181;28;45244;-74
2023/08/26 13:52:34;;;;;;;;;0.50;0.50;;;;;;;;5082756;28;45462;-73
2023/08/26 13:54:59;;;;;;;;;0.00;0.00;;;;;;;;5060090;28;48444;-73
2023/08/26 13:57:24;;;;;;;;;0.75;0.75;;;;;;;;5079649;28;45346;-73
2023/08/26 13:59:49;;;;;;;;;1.50;0.25;;;;;;;;5079026;28;45277;-73
2023/08/26 14:02:15;;;;;;;;;0.00;0.00;;;;;;;;5079383;28;45359;-73
2023/08/26 14:04:40;;;;;;;;;1.00;1.00;;;;;;;;5078049;27;46274;-74
2023/08/26 14:07:05;;;;;;;;;0.25;0.25;;;;;;;;5074897;27;45488;-76
2023/08/26 14:09:30;;;;;;;;;0.00;0.00;;;;;;;;5043490;28;45816;-75
2023/08/26 14:11:58;;;;;;;;;0.25;0.00;;;;;;;;5073175;27;45382;-75
2023/08/26 14:14:23;;;;;;;;;0.00;0.00;;;;;;;;5064825;27;45304;-74
2023/08/26 14:16:48;;;;;;;;;0.00;0.00;;;;;;;;5046590;27;45284;-73
2023/08/26 14:19:13;;;;;;;;;0.00;0.00;;;;;;;;5064795;27;45315;-73
2023/08/26 14:21:39;;;;;;;;;0.00;0.00;;;;;;;;5073744;27;45226;-74
2023/08/26 14:24:04;;;;;;;;;0.00;0.00;;;;;;;;5046210;28;48449;-73
2023/08/26 14:26:30;;;;;;;;;0.00;0.00;;;;;;;;5072666;27;45161;-73
2023/08/26 14:28:55;;;;;;;;;1.00;1.00;;;;;;;;5075655;27;45307;-73
2023/08/26 14:31:21;;;;;;;;;0.00;0.00;;;;;;;;5056448;28;45935;-73
2023/08/26 14:33:46;;;;;;;;;1.50;1.00;;;;;;;;5080047;27;45631;-74